Погода Серовна 2 недели

Свердловская область, Россия

14 - 26 июня
  • 14июня
    Сегодня
    +19°
    +32°
    Небольшая облачность
    ВремяПогодаТемператураВлажностьДавлениеВетер, м/сВероятность осадков
    02:00Ясно и безоблачно+20°C83 %750 мм1.1 м/с2 %
    05:00Ясно и безоблачно+20°C77 %749 мм1.5 м/с2 %
    08:00Ясно и безоблачно+25°C64 %749 мм1.4 м/с2 %
    11:00Ясно и безоблачно+30°C36 %749 мм2.8 м/с2 %
    14:00Небольшая облачность+32°C31 %748 мм3.1 м/с3 %
    17:00Практически безоблачно+31°C35 %748 мм3.0 м/с10 %
    20:00Небольшая облачность+29°C60 %748 мм2.1 м/с2 %
    23:00Ясно и безоблачно+24°C75 %747 мм1.3 м/с2 %
  • 15июня
    Суббота
    +18°
    +32°
    Практически безоблачно
    ВремяПогодаТемператураВлажностьДавлениеВетер, м/сВероятность осадков
    02:00Ясно и безоблачно+21°C82 %747 мм1.3 м/с2 %
    05:00Ясно и безоблачно+20°C78 %746 мм1.7 м/с1 %
    08:00Практически безоблачно+26°C63 %746 мм1.7 м/с2 %
    11:00Ясно и безоблачно+31°C38 %746 мм3.3 м/с10 %
    14:00Практически безоблачно+32°C26 %745 мм3.7 м/с23 %
    17:00Практически безоблачно+29°C29 %744 мм3.5 м/с34 %
    20:00Практически безоблачно+27°C43 %745 мм3.0 м/с21 %
    23:00Облачно с прояснениями+20°C65 %745 мм2.1 м/с11 %
  • 16июня
    Воскресенье
    +13°
    +25°
    Ясно и безоблачно
    ВремяПогодаТемператураВлажностьДавлениеВетер, м/сВероятность осадков
    02:00Облачно с прояснениями+18°C79 %744 мм1.4 м/с7 %
    05:00Небольшая облачность+19°C89 %745 мм1.4 м/с5 %
    08:00Облачно с прояснениями+22°C72 %745 мм1.9 м/с3 %
    11:00Небольшая облачность+21°C51 %745 мм1.9 м/с36 %
    14:00Ясно и безоблачно+23°C44 %746 мм2.4 м/с34 %
    17:00Практически безоблачно+22°C47 %747 мм3.2 м/с27 %
    20:00Облачно с прояснениями+21°C54 %749 мм3.3 м/с16 %
    23:00Облачно с прояснениями+18°C59 %750 мм3.0 м/с14 %
  • 17июня
    Понедельник
    +11°
    +24°
    Пасмурно, сплошная облачность
    ВремяПогодаТемператураВлажностьДавлениеВетер, м/сВероятность осадков
    02:00Ясно и безоблачно+14°C63 %751 мм2.0 м/с9 %
    05:00Ясно и безоблачно+13°C70 %752 мм1.8 м/с8 %
    08:00Ясно и безоблачно+18°C53 %752 мм2.1 м/с8 %
    11:00Ясно и безоблачно+22°C37 %752 мм3.5 м/с7 %
    14:00Пасмурно, сплошная облачность+24°C29 %751 мм4.3 м/с5 %
    17:00Практически безоблачно+23°C35 %752 мм4.3 м/с14 %
    20:00Ясно и безоблачно+22°C51 %752 мм2.9 м/с11 %
    23:00Ясно и безоблачно+17°C71 %753 мм1.3 м/с2 %
Мы используем cookies
Соглашаюсь